sensor_id;sensor_type;location;lat;lon;timestamp;temperature;humidity
8188;DHT22;4135;49.184;9.722;2022-11-18T00:00:04;17.80;56.00
8188;DHT22;4135;49.184;9.722;2022-11-18T00:02:34;17.90;56.70
8188;DHT22;4135;49.184;9.722;2022-11-18T00:05:03;17.90;56.10
8188;DHT22;4135;49.184;9.722;2022-11-18T00:07:33;17.90;56.10
8188;DHT22;4135;49.184;9.722;2022-11-18T00:10:03;17.80;56.10
8188;DHT22;4135;49.184;9.722;2022-11-18T00:12:32;17.90;56.10
8188;DHT22;4135;49.184;9.722;2022-11-18T00:15:20;17.90;56.10
8188;DHT22;4135;49.184;9.722;2022-11-18T00:17:50;17.90;56.20
8188;DHT22;4135;49.184;9.722;2022-11-18T00:20:19;17.90;56.10
8188;DHT22;4135;49.184;9.722;2022-11-18T00:22:49;17.90;56.20
8188;DHT22;4135;49.184;9.722;2022-11-18T00:25:18;17.90;56.10
8188;DHT22;4135;49.184;9.722;2022-11-18T00:27:48;17.90;56.20
8188;DHT22;4135;49.184;9.722;2022-11-18T00:30:17;17.90;56.10
8188;DHT22;4135;49.184;9.722;2022-11-18T00:32:47;17.80;56.10
8188;DHT22;4135;49.184;9.722;2022-11-18T00:35:16;17.90;56.20
8188;DHT22;4135;49.184;9.722;2022-11-18T00:37:46;17.90;56.10
8188;DHT22;4135;49.184;9.722;2022-11-18T00:40:16;17.90;56.10
8188;DHT22;4135;49.184;9.722;2022-11-18T00:42:45;17.90;56.10
8188;DHT22;4135;49.184;9.722;2022-11-18T00:45:22;17.90;56.70
8188;DHT22;4135;49.184;9.722;2022-11-18T00:47:51;17.80;56.00
8188;DHT22;4135;49.184;9.722;2022-11-18T00:50:21;17.90;56.10
8188;DHT22;4135;49.184;9.722;2022-11-18T00:52:50;17.90;56.10
8188;DHT22;4135;49.184;9.722;2022-11-18T00:55:20;17.80;56.00
8188;DHT22;4135;49.184;9.722;2022-11-18T00:57:49;17.80;56.00
8188;DHT22;4135;49.184;9.722;2022-11-18T01:00:19;17.90;56.00
8188;DHT22;4135;49.184;9.722;2022-11-18T01:02:48;17.90;56.00
8188;DHT22;4135;49.184;9.722;2022-11-18T01:05:18;17.80;56.00
8188;DHT22;4135;49.184;9.722;2022-11-18T01:07:47;17.90;56.00
8188;DHT22;4135;49.184;9.722;2022-11-18T01:10:17;17.80;56.00
8188;DHT22;4135;49.184;9.722;2022-11-18T01:12:47;17.80;56.00
8188;DHT22;4135;49.184;9.722;2022-11-18T01:15:39;17.80;56.00
8188;DHT22;4135;49.184;9.722;2022-11-18T01:18:09;17.80;55.90
8188;DHT22;4135;49.184;9.722;2022-11-18T01:20:39;17.80;56.00
8188;DHT22;4135;49.184;9.722;2022-11-18T01:23:08;17.90;56.00
8188;DHT22;4135;49.184;9.722;2022-11-18T01:25:39;17.80;56.00
8188;DHT22;4135;49.184;9.722;2022-11-18T01:28:10;17.80;56.00
8188;DHT22;4135;49.184;9.722;2022-11-18T01:30:40;17.80;55.90
8188;DHT22;4135;49.184;9.722;2022-11-18T01:33:10;17.80;55.90
8188;DHT22;4135;49.184;9.722;2022-11-18T01:35:42;17.80;55.90
8188;DHT22;4135;49.184;9.722;2022-11-18T01:38:13;17.90;56.00
8188;DHT22;4135;49.184;9.722;2022-11-18T01:40:42;17.80;55.90
8188;DHT22;4135;49.184;9.722;2022-11-18T01:43:15;17.80;55.90
8188;DHT22;4135;49.184;9.722;2022-11-18T01:45:48;17.80;55.90
8188;DHT22;4135;49.184;9.722;2022-11-18T01:48:32;17.80;55.90
8188;DHT22;4135;49.184;9.722;2022-11-18T01:51:08;17.80;55.80
8188;DHT22;4135;49.184;9.722;2022-11-18T01:53:41;18.60;56.60
8188;DHT22;4135;49.184;9.722;2022-11-18T01:56:14;17.80;55.90
8188;DHT22;4135;49.184;9.722;2022-11-18T01:58:53;17.80;55.80
8188;DHT22;4135;49.184;9.722;2022-11-18T02:01:23;17.80;55.80
8188;DHT22;4135;49.184;9.722;2022-11-18T02:03:53;17.80;55.80
8188;DHT22;4135;49.184;9.722;2022-11-18T02:06:23;17.80;55.90
8188;DHT22;4135;49.184;9.722;2022-11-18T02:08:53;17.80;55.80
8188;DHT22;4135;49.184;9.722;2022-11-18T02:11:24;17.80;55.80
8188;DHT22;4135;49.184;9.722;2022-11-18T02:14:12;17.80;55.80
8188;DHT22;4135;49.184;9.722;2022-11-18T02:29:08;17.80;55.80
8188;DHT22;4135;49.184;9.722;2022-11-18T02:32:00;17.80;55.80
8188;DHT22;4135;49.184;9.722;2022-11-18T02:37:34;17.80;55.80
8188;DHT22;4135;49.184;9.722;2022-11-18T02:43:03;17.80;55.80
8188;DHT22;4135;49.184;9.722;2022-11-18T02:45:34;17.80;55.80
8188;DHT22;4135;49.184;9.722;2022-11-18T02:48:09;17.80;55.80
8188;DHT22;4135;49.184;9.722;2022-11-18T02:50:42;17.80;55.80
8188;DHT22;4135;49.184;9.722;2022-11-18T02:53:14;17.80;55.80
8188;DHT22;4135;49.184;9.722;2022-11-18T02:55:45;17.80;56.30
8188;DHT22;4135;49.184;9.722;2022-11-18T02:58:18;17.80;55.80
8188;DHT22;4135;49.184;9.722;2022-11-18T03:00:55;17.80;55.80
8188;DHT22;4135;49.184;9.722;2022-11-18T03:06:09;17.80;55.70
8188;DHT22;4135;49.184;9.722;2022-11-18T03:08:48;17.80;55.70
8188;DHT22;4135;49.184;9.722;2022-11-18T03:11:23;17.80;55.70
8188;DHT22;4135;49.184;9.722;2022-11-18T03:14:12;17.80;55.70
8188;DHT22;4135;49.184;9.722;2022-11-18T03:17:01;17.80;55.70
8188;DHT22;4135;49.184;9.722;2022-11-18T03:19:33;17.80;55.70
8188;DHT22;4135;49.184;9.722;2022-11-18T03:25:06;17.80;55.70
8188;DHT22;4135;49.184;9.722;2022-11-18T03:30:22;17.80;55.70
8188;DHT22;4135;49.184;9.722;2022-11-18T03:33:08;17.80;55.70
8188;DHT22;4135;49.184;9.722;2022-11-18T03:35:42;17.80;55.80
8188;DHT22;4135;49.184;9.722;2022-11-18T03:38:20;17.80;55.80
8188;DHT22;4135;49.184;9.722;2022-11-18T03:40:54;17.80;55.80
8188;DHT22;4135;49.184;9.722;2022-11-18T03:43:30;17.80;55.80
8188;DHT22;4135;49.184;9.722;2022-11-18T03:46:13;17.80;55.80
8188;DHT22;4135;49.184;9.722;2022-11-18T03:48:48;17.80;55.80
8188;DHT22;4135;49.184;9.722;2022-11-18T03:51:25;17.80;55.80
8188;DHT22;4135;49.184;9.722;2022-11-18T03:54:06;17.80;55.80
8188;DHT22;4135;49.184;9.722;2022-11-18T03:56:42;17.80;55.80
8188;DHT22;4135;49.184;9.722;2022-11-18T03:59:21;17.80;55.80
8188;DHT22;4135;49.184;9.722;2022-11-18T04:01:55;17.80;55.80
8188;DHT22;4135;49.184;9.722;2022-11-18T04:04:26;17.80;55.80
8188;DHT22;4135;49.184;9.722;2022-11-18T04:07:17;17.80;55.80
8188;DHT22;4135;49.184;9.722;2022-11-18T04:12:53;17.80;55.80
8188;DHT22;4135;49.184;9.722;2022-11-18T04:15:24;17.80;55.80
8188;DHT22;4135;49.184;9.722;2022-11-18T04:17:54;17.80;55.80
8188;DHT22;4135;49.184;9.722;2022-11-18T04:20:24;17.80;55.80
8188;DHT22;4135;49.184;9.722;2022-11-18T04:22:54;17.80;55.80
8188;DHT22;4135;49.184;9.722;2022-11-18T04:25:25;17.80;55.80
8188;DHT22;4135;49.184;9.722;2022-11-18T04:27:55;17.80;55.70
8188;DHT22;4135;49.184;9.722;2022-11-18T04:30:24;18.90;56.70
8188;DHT22;4135;49.184;9.722;2022-11-18T04:32:54;17.80;55.70
8188;DHT22;4135;49.184;9.722;2022-11-18T04:35:24;17.80;55.70
8188;DHT22;4135;49.184;9.722;2022-11-18T04:37:53;17.80;55.70
8188;DHT22;4135;49.184;9.722;2022-11-18T04:40:23;17.80;55.70
8188;DHT22;4135;49.184;9.722;2022-11-18T04:42:52;17.80;55.70
8188;DHT22;4135;49.184;9.722;2022-11-18T04:45:22;17.80;55.70
8188;DHT22;4135;49.184;9.722;2022-11-18T04:47:51;17.80;55.70
8188;DHT22;4135;49.184;9.722;2022-11-18T04:50:21;17.80;55.70
8188;DHT22;4135;49.184;9.722;2022-11-18T04:52:50;17.80;55.70
8188;DHT22;4135;49.184;9.722;2022-11-18T04:55:20;17.80;55.70
8188;DHT22;4135;49.184;9.722;2022-11-18T04:57:49;17.80;55.70
8188;DHT22;4135;49.184;9.722;2022-11-18T05:00:19;17.70;55.60
8188;DHT22;4135;49.184;9.722;2022-11-18T05:02:50;17.70;55.60
8188;DHT22;4135;49.184;9.722;2022-11-18T05:05:20;17.70;55.60
8188;DHT22;4135;49.184;9.722;2022-11-18T05:07:50;17.70;55.60
8188;DHT22;4135;49.184;9.722;2022-11-18T05:10:19;17.70;55.60
8188;DHT22;4135;49.184;9.722;2022-11-18T05:12:49;17.70;55.60
8188;DHT22;4135;49.184;9.722;2022-11-18T05:15:20;17.70;55.60
8188;DHT22;4135;49.184;9.722;2022-11-18T05:17:52;17.80;55.70
8188;DHT22;4135;49.184;9.722;2022-11-18T05:20:21;17.80;55.80
8188;DHT22;4135;49.184;9.722;2022-11-18T05:22:51;17.80;55.70
8188;DHT22;4135;49.184;9.722;2022-11-18T05:25:20;17.80;55.70
8188;DHT22;4135;49.184;9.722;2022-11-18T05:27:50;17.70;55.60
8188;DHT22;4135;49.184;9.722;2022-11-18T05:30:19;17.80;56.30
8188;DHT22;4135;49.184;9.722;2022-11-18T05:32:49;17.70;55.60
8188;DHT22;4135;49.184;9.722;2022-11-18T05:35:18;17.70;55.60
8188;DHT22;4135;49.184;9.722;2022-11-18T05:37:48;17.70;55.70
8188;DHT22;4135;49.184;9.722;2022-11-18T05:40:17;17.70;55.80
8188;DHT22;4135;49.184;9.722;2022-11-18T05:42:47;17.70;55.80
8188;DHT22;4135;49.184;9.722;2022-11-18T05:45:35;17.70;55.80
8188;DHT22;4135;49.184;9.722;2022-11-18T05:48:05;17.70;55.80
8188;DHT22;4135;49.184;9.722;2022-11-18T05:50:37;17.70;56.00
8188;DHT22;4135;49.184;9.722;2022-11-18T05:53:06;17.70;55.80
8188;DHT22;4135;49.184;9.722;2022-11-18T05:55:43;17.70;55.80
8188;DHT22;4135;49.184;9.722;2022-11-18T05:58:16;17.70;55.70
8188;DHT22;4135;49.184;9.722;2022-11-18T06:00:48;17.70;55.70
8188;DHT22;4135;49.184;9.722;2022-11-18T06:03:23;17.70;55.70
8188;DHT22;4135;49.184;9.722;2022-11-18T06:05:55;17.70;55.90
8188;DHT22;4135;49.184;9.722;2022-11-18T06:08:30;17.80;56.60
8188;DHT22;4135;49.184;9.722;2022-11-18T06:11:02;17.80;58.80
8188;DHT22;4135;49.184;9.722;2022-11-18T06:13:39;17.80;59.20
8188;DHT22;4135;49.184;9.722;2022-11-18T06:16:11;17.80;59.40
8188;DHT22;4135;49.184;9.722;2022-11-18T06:18:41;17.80;59.10
8188;DHT22;4135;49.184;9.722;2022-11-18T06:21:11;17.80;59.20
8188;DHT22;4135;49.184;9.722;2022-11-18T06:23:41;17.80;59.10
8188;DHT22;4135;49.184;9.722;2022-11-18T06:26:13;17.80;59.20
8188;DHT22;4135;49.184;9.722;2022-11-18T06:28:45;17.80;58.90
8188;DHT22;4135;49.184;9.722;2022-11-18T06:31:16;17.80;58.60
8188;DHT22;4135;49.184;9.722;2022-11-18T06:33:45;17.80;58.30
8188;DHT22;4135;49.184;9.722;2022-11-18T06:36:15;17.80;58.10
8188;DHT22;4135;49.184;9.722;2022-11-18T06:38:44;17.80;57.90
8188;DHT22;4135;49.184;9.722;2022-11-18T06:41:14;17.80;57.80
8188;DHT22;4135;49.184;9.722;2022-11-18T06:43:43;17.80;57.70
8188;DHT22;4135;49.184;9.722;2022-11-18T06:46:15;17.80;57.60
8188;DHT22;4135;49.184;9.722;2022-11-18T06:49:03;17.80;59.00
8188;DHT22;4135;49.184;9.722;2022-11-18T06:51:33;17.80;58.80
8188;DHT22;4135;49.184;9.722;2022-11-18T06:54:02;17.80;58.50
8188;DHT22;4135;49.184;9.722;2022-11-18T06:56:33;17.90;59.00
8188;DHT22;4135;49.184;9.722;2022-11-18T06:59:04;17.90;59.30
8188;DHT22;4135;49.184;9.722;2022-11-18T07:01:35;17.90;59.40
8188;DHT22;4135;49.184;9.722;2022-11-18T07:04:05;17.90;59.40
8188;DHT22;4135;49.184;9.722;2022-11-18T07:06:35;17.90;59.30
8188;DHT22;4135;49.184;9.722;2022-11-18T07:09:06;17.90;59.10
8188;DHT22;4135;49.184;9.722;2022-11-18T07:11:36;17.90;59.60
8188;DHT22;4135;49.184;9.722;2022-11-18T07:14:08;17.90;59.20
8188;DHT22;4135;49.184;9.722;2022-11-18T07:16:38;17.90;59.00
8188;DHT22;4135;49.184;9.722;2022-11-18T07:19:12;17.90;58.90
8188;DHT22;4135;49.184;9.722;2022-11-18T07:21:42;17.90;58.90
8188;DHT22;4135;49.184;9.722;2022-11-18T07:24:13;17.90;58.70
8188;DHT22;4135;49.184;9.722;2022-11-18T07:26:42;17.90;58.50
8188;DHT22;4135;49.184;9.722;2022-11-18T07:29:12;17.90;58.50
8188;DHT22;4135;49.184;9.722;2022-11-18T07:31:42;17.90;58.40
8188;DHT22;4135;49.184;9.722;2022-11-18T07:34:11;17.90;58.30
8188;DHT22;4135;49.184;9.722;2022-11-18T07:36:41;17.90;58.30
8188;DHT22;4135;49.184;9.722;2022-11-18T07:39:11;17.90;58.20
8188;DHT22;4135;49.184;9.722;2022-11-18T07:41:40;17.90;58.20
8188;DHT22;4135;49.184;9.722;2022-11-18T07:44:10;17.90;58.00
8188;DHT22;4135;49.184;9.722;2022-11-18T07:46:40;17.90;58.00
8188;DHT22;4135;49.184;9.722;2022-11-18T07:49:10;18.00;58.00
8188;DHT22;4135;49.184;9.722;2022-11-18T07:51:40;17.90;57.70
8188;DHT22;4135;49.184;9.722;2022-11-18T07:54:12;17.90;57.70
8188;DHT22;4135;49.184;9.722;2022-11-18T07:56:42;17.90;57.80
8188;DHT22;4135;49.184;9.722;2022-11-18T07:59:11;17.90;57.80
8188;DHT22;4135;49.184;9.722;2022-11-18T08:01:41;17.90;57.70
8188;DHT22;4135;49.184;9.722;2022-11-18T08:04:11;17.90;57.70
8188;DHT22;4135;49.184;9.722;2022-11-18T08:06:40;17.90;57.70
8188;DHT22;4135;49.184;9.722;2022-11-18T08:09:10;17.90;57.60
8188;DHT22;4135;49.184;9.722;2022-11-18T08:11:39;17.90;57.40
8188;DHT22;4135;49.184;9.722;2022-11-18T08:14:09;18.00;58.10
8188;DHT22;4135;49.184;9.722;2022-11-18T08:16:38;17.90;57.40
8188;DHT22;4135;49.184;9.722;2022-11-18T08:19:08;17.90;57.30
8188;DHT22;4135;49.184;9.722;2022-11-18T08:21:37;18.00;57.30
8188;DHT22;4135;49.184;9.722;2022-11-18T08:24:08;17.90;57.30
8188;DHT22;4135;49.184;9.722;2022-11-18T08:26:38;17.90;57.20
8188;DHT22;4135;49.184;9.722;2022-11-18T08:29:08;17.90;57.10
8188;DHT22;4135;49.184;9.722;2022-11-18T08:31:37;17.90;57.10
8188;DHT22;4135;49.184;9.722;2022-11-18T08:34:07;17.90;57.00
8188;DHT22;4135;49.184;9.722;2022-11-18T08:36:37;17.90;57.00
8188;DHT22;4135;49.184;9.722;2022-11-18T08:39:08;17.90;57.00
8188;DHT22;4135;49.184;9.722;2022-11-18T08:41:41;17.90;56.90
8188;DHT22;4135;49.184;9.722;2022-11-18T08:44:13;17.90;56.90
8188;DHT22;4135;49.184;9.722;2022-11-18T08:46:43;17.90;56.80
8188;DHT22;4135;49.184;9.722;2022-11-18T08:49:15;17.90;56.80
8188;DHT22;4135;49.184;9.722;2022-11-18T08:51:45;17.90;56.80
8188;DHT22;4135;49.184;9.722;2022-11-18T08:54:14;17.90;56.80
8188;DHT22;4135;49.184;9.722;2022-11-18T08:56:44;17.90;56.70
8188;DHT22;4135;49.184;9.722;2022-11-18T08:59:13;17.90;56.70
8188;DHT22;4135;49.184;9.722;2022-11-18T09:01:43;18.00;56.80
8188;DHT22;4135;49.184;9.722;2022-11-18T09:04:13;17.90;56.60
8188;DHT22;4135;49.184;9.722;2022-11-18T09:06:42;17.90;56.60
8188;DHT22;4135;49.184;9.722;2022-11-18T09:09:12;17.90;56.60
8188;DHT22;4135;49.184;9.722;2022-11-18T09:11:41;17.90;56.60
8188;DHT22;4135;49.184;9.722;2022-11-18T09:14:11;17.90;56.50
8188;DHT22;4135;49.184;9.722;2022-11-18T09:16:41;17.90;56.40
8188;DHT22;4135;49.184;9.722;2022-11-18T09:19:10;17.90;56.40
8188;DHT22;4135;49.184;9.722;2022-11-18T09:21:40;17.90;56.30
8188;DHT22;4135;49.184;9.722;2022-11-18T09:24:09;17.90;56.30
8188;DHT22;4135;49.184;9.722;2022-11-18T09:26:39;17.90;56.40
8188;DHT22;4135;49.184;9.722;2022-11-18T09:29:09;17.90;56.30
8188;DHT22;4135;49.184;9.722;2022-11-18T09:31:40;17.90;56.40
8188;DHT22;4135;49.184;9.722;2022-11-18T09:34:09;17.90;56.30
8188;DHT22;4135;49.184;9.722;2022-11-18T09:36:39;17.90;56.30
8188;DHT22;4135;49.184;9.722;2022-11-18T09:39:08;17.90;56.30
8188;DHT22;4135;49.184;9.722;2022-11-18T09:47:27;17.90;56.20
8188;DHT22;4135;49.184;9.722;2022-11-18T09:50:05;17.90;56.10
8188;DHT22;4135;49.184;9.722;2022-11-18T09:52:39;17.90;56.00
8188;DHT22;4135;49.184;9.722;2022-11-18T09:55:13;17.90;56.10
8188;DHT22;4135;49.184;9.722;2022-11-18T09:57:49;17.90;56.20
8188;DHT22;4135;49.184;9.722;2022-11-18T10:00:24;17.90;56.10
8188;DHT22;4135;49.184;9.722;2022-11-18T10:03:00;17.90;56.20
8188;DHT22;4135;49.184;9.722;2022-11-18T10:08:27;17.90;56.10
8188;DHT22;4135;49.184;9.722;2022-11-18T10:11:22;17.90;56.20
8188;DHT22;4135;49.184;9.722;2022-11-18T10:22:55;17.90;56.20
8188;DHT22;4135;49.184;9.722;2022-11-18T10:25:26;17.90;56.20
8188;DHT22;4135;49.184;9.722;2022-11-18T10:28:13;17.90;56.10
8188;DHT22;4135;49.184;9.722;2022-11-18T10:30:43;17.90;56.10
8188;DHT22;4135;49.184;9.722;2022-11-18T10:38:45;18.00;56.20
8188;DHT22;4135;49.184;9.722;2022-11-18T10:41:17;18.00;56.20
8188;DHT22;4135;49.184;9.722;2022-11-18T10:43:51;18.00;56.10
8188;DHT22;4135;49.184;9.722;2022-11-18T10:46:29;18.00;56.20
8188;DHT22;4135;49.184;9.722;2022-11-18T10:51:44;18.00;56.10
8188;DHT22;4135;49.184;9.722;2022-11-18T10:54:19;18.00;56.10
8188;DHT22;4135;49.184;9.722;2022-11-18T11:05:34;18.00;56.00
8188;DHT22;4135;49.184;9.722;2022-11-18T11:08:17;17.90;56.00
8188;DHT22;4135;49.184;9.722;2022-11-18T11:10:55;18.00;56.00
8188;DHT22;4135;49.184;9.722;2022-11-18T11:13:27;17.90;56.00
8188;DHT22;4135;49.184;9.722;2022-11-18T11:16:01;17.90;55.90
8188;DHT22;4135;49.184;9.722;2022-11-18T11:18:34;17.90;56.00
8188;DHT22;4135;49.184;9.722;2022-11-18T11:21:16;17.90;55.90
8188;DHT22;4135;49.184;9.722;2022-11-18T11:23:46;17.90;55.90
8188;DHT22;4135;49.184;9.722;2022-11-18T11:26:33;17.90;55.90
8188;DHT22;4135;49.184;9.722;2022-11-18T11:29:23;17.90;55.80
8188;DHT22;4135;49.184;9.722;2022-11-18T11:32:14;17.90;55.90
8188;DHT22;4135;49.184;9.722;2022-11-18T11:37:59;17.90;55.80
8188;DHT22;4135;49.184;9.722;2022-11-18T11:43:37;17.90;55.70
8188;DHT22;4135;49.184;9.722;2022-11-18T11:46:53;17.90;55.80
8188;DHT22;4135;49.184;9.722;2022-11-18T11:49:52;17.90;55.80
8188;DHT22;4135;49.184;9.722;2022-11-18T11:52:46;17.90;55.80
8188;DHT22;4135;49.184;9.722;2022-11-18T11:58:16;17.90;55.70
8188;DHT22;4135;49.184;9.722;2022-11-18T12:00:59;17.90;55.70
8188;DHT22;4135;49.184;9.722;2022-11-18T12:06:13;17.90;56.40
8188;DHT22;4135;49.184;9.722;2022-11-18T12:09:08;17.80;55.80
8188;DHT22;4135;49.184;9.722;2022-11-18T12:11:51;17.80;55.70
8188;DHT22;4135;49.184;9.722;2022-11-18T12:14:29;17.80;55.70
8188;DHT22;4135;49.184;9.722;2022-11-18T12:17:15;17.90;55.70
8188;DHT22;4135;49.184;9.722;2022-11-18T12:19:47;17.80;55.70
8188;DHT22;4135;49.184;9.722;2022-11-18T12:22:16;17.80;55.80
8188;DHT22;4135;49.184;9.722;2022-11-18T12:24:46;17.90;55.80
8188;DHT22;4135;49.184;9.722;2022-11-18T12:30:17;17.80;55.80
8188;DHT22;4135;49.184;9.722;2022-11-18T12:32:54;17.80;55.80
8188;DHT22;4135;49.184;9.722;2022-11-18T12:35:29;17.80;55.80
8188;DHT22;4135;49.184;9.722;2022-11-18T12:38:00;17.80;55.70
8188;DHT22;4135;49.184;9.722;2022-11-18T12:51:55;18.00;55.50
8188;DHT22;4135;49.184;9.722;2022-11-18T12:54:37;18.00;55.50
8188;DHT22;4135;49.184;9.722;2022-11-18T12:59:46;17.90;55.50
8188;DHT22;4135;49.184;9.722;2022-11-18T13:02:19;17.90;55.60
8188;DHT22;4135;49.184;9.722;2022-11-18T13:05:19;17.90;55.60
8188;DHT22;4135;49.184;9.722;2022-11-18T13:07:58;17.90;55.60
8188;DHT22;4135;49.184;9.722;2022-11-18T13:13:52;17.90;55.60
8188;DHT22;4135;49.184;9.722;2022-11-18T13:16:40;17.90;55.60
8188;DHT22;4135;49.184;9.722;2022-11-18T13:19:54;17.90;55.70
8188;DHT22;4135;49.184;9.722;2022-11-18T13:22:26;17.90;55.70
8188;DHT22;4135;49.184;9.722;2022-11-18T13:25:24;17.90;55.70
8188;DHT22;4135;49.184;9.722;2022-11-18T13:30:48;17.90;55.70
8188;DHT22;4135;49.184;9.722;2022-11-18T13:33:19;17.90;55.70
8188;DHT22;4135;49.184;9.722;2022-11-18T13:35:48;17.90;55.80
8188;DHT22;4135;49.184;9.722;2022-11-18T13:38:21;17.90;55.70
8188;DHT22;4135;49.184;9.722;2022-11-18T13:40:51;17.90;55.70
8188;DHT22;4135;49.184;9.722;2022-11-18T13:43:34;17.90;55.70
8188;DHT22;4135;49.184;9.722;2022-11-18T13:46:07;17.90;55.60
8188;DHT22;4135;49.184;9.722;2022-11-18T13:48:40;17.90;55.50
8188;DHT22;4135;49.184;9.722;2022-11-18T13:51:14;17.90;55.50
8188;DHT22;4135;49.184;9.722;2022-11-18T13:53:44;17.90;55.50
8188;DHT22;4135;49.184;9.722;2022-11-18T13:56:21;17.90;55.50
8188;DHT22;4135;49.184;9.722;2022-11-18T13:58:54;17.90;55.50
8188;DHT22;4135;49.184;9.722;2022-11-18T14:01:30;17.90;55.50
8188;DHT22;4135;49.184;9.722;2022-11-18T14:04:15;17.80;55.50
8188;DHT22;4135;49.184;9.722;2022-11-18T14:06:45;17.80;55.50
8188;DHT22;4135;49.184;9.722;2022-11-18T14:12:02;17.80;55.40
8188;DHT22;4135;49.184;9.722;2022-11-18T14:14:36;17.80;55.40
8188;DHT22;4135;49.184;9.722;2022-11-18T14:17:23;17.80;55.40
8188;DHT22;4135;49.184;9.722;2022-11-18T14:19:55;17.70;55.40
8188;DHT22;4135;49.184;9.722;2022-11-18T14:22:27;17.70;55.50
8188;DHT22;4135;49.184;9.722;2022-11-18T14:25:14;17.70;55.40
8188;DHT22;4135;49.184;9.722;2022-11-18T14:27:47;17.70;55.40
8188;DHT22;4135;49.184;9.722;2022-11-18T14:35:43;17.70;55.40
8188;DHT22;4135;49.184;9.722;2022-11-18T14:38:15;17.70;55.40
8188;DHT22;4135;49.184;9.722;2022-11-18T14:40:46;17.60;55.40
8188;DHT22;4135;49.184;9.722;2022-11-18T14:43:15;17.60;55.40
8188;DHT22;4135;49.184;9.722;2022-11-18T14:45:45;17.60;55.40
8188;DHT22;4135;49.184;9.722;2022-11-18T14:48:16;17.60;55.50
8188;DHT22;4135;49.184;9.722;2022-11-18T14:50:47;17.60;56.10
8188;DHT22;4135;49.184;9.722;2022-11-18T14:53:17;17.60;55.50
8188;DHT22;4135;49.184;9.722;2022-11-18T14:55:49;17.60;55.60
8188;DHT22;4135;49.184;9.722;2022-11-18T14:58:19;17.60;55.70
8188;DHT22;4135;49.184;9.722;2022-11-18T15:00:49;17.60;55.60
8188;DHT22;4135;49.184;9.722;2022-11-18T15:03:19;17.60;55.60
8188;DHT22;4135;49.184;9.722;2022-11-18T15:05:48;17.60;55.60
8188;DHT22;4135;49.184;9.722;2022-11-18T15:08:18;17.60;55.50
8188;DHT22;4135;49.184;9.722;2022-11-18T15:10:47;17.60;55.50
8188;DHT22;4135;49.184;9.722;2022-11-18T15:13:17;17.60;55.40
8188;DHT22;4135;49.184;9.722;2022-11-18T15:15:46;17.60;55.50
8188;DHT22;4135;49.184;9.722;2022-11-18T15:18:16;17.60;55.40
8188;DHT22;4135;49.184;9.722;2022-11-18T15:20:45;17.60;55.40
8188;DHT22;4135;49.184;9.722;2022-11-18T15:23:15;17.60;55.40
8188;DHT22;4135;49.184;9.722;2022-11-18T15:25:44;17.50;55.40
8188;DHT22;4135;49.184;9.722;2022-11-18T15:28:14;17.50;55.30
8188;DHT22;4135;49.184;9.722;2022-11-18T15:30:43;17.50;55.40
8188;DHT22;4135;49.184;9.722;2022-11-18T15:33:13;17.40;55.30
8188;DHT22;4135;49.184;9.722;2022-11-18T15:35:42;17.50;55.40
8188;DHT22;4135;49.184;9.722;2022-11-18T15:38:12;17.50;55.40
8188;DHT22;4135;49.184;9.722;2022-11-18T15:40:41;17.50;55.40
8188;DHT22;4135;49.184;9.722;2022-11-18T15:43:11;17.50;55.40
8188;DHT22;4135;49.184;9.722;2022-11-18T15:45:41;17.50;55.50
8188;DHT22;4135;49.184;9.722;2022-11-18T15:48:10;17.50;55.50
8188;DHT22;4135;49.184;9.722;2022-11-18T15:50:40;17.50;55.50
8188;DHT22;4135;49.184;9.722;2022-11-18T15:53:09;17.50;55.60
8188;DHT22;4135;49.184;9.722;2022-11-18T15:55:38;17.50;55.60
8188;DHT22;4135;49.184;9.722;2022-11-18T15:58:08;17.50;55.70
8188;DHT22;4135;49.184;9.722;2022-11-18T16:00:38;17.50;55.70
8188;DHT22;4135;49.184;9.722;2022-11-18T16:03:07;17.50;55.60
8188;DHT22;4135;49.184;9.722;2022-11-18T16:05:37;17.50;55.60
8188;DHT22;4135;49.184;9.722;2022-11-18T16:08:06;17.50;55.60
8188;DHT22;4135;49.184;9.722;2022-11-18T16:10:36;17.50;55.70
8188;DHT22;4135;49.184;9.722;2022-11-18T16:13:23;17.50;55.70
8188;DHT22;4135;49.184;9.722;2022-11-18T16:15:53;17.50;55.70
8188;DHT22;4135;49.184;9.722;2022-11-18T16:18:22;17.60;55.80
8188;DHT22;4135;49.184;9.722;2022-11-18T16:20:57;17.60;55.80
8188;DHT22;4135;49.184;9.722;2022-11-18T16:23:27;17.60;55.80
8188;DHT22;4135;49.184;9.722;2022-11-18T16:25:56;17.60;56.00
8188;DHT22;4135;49.184;9.722;2022-11-18T16:28:26;17.60;55.80
8188;DHT22;4135;49.184;9.722;2022-11-18T16:30:56;17.60;55.80
8188;DHT22;4135;49.184;9.722;2022-11-18T16:33:44;17.60;55.80
8188;DHT22;4135;49.184;9.722;2022-11-18T16:36:13;17.60;55.80
8188;DHT22;4135;49.184;9.722;2022-11-18T16:38:43;17.60;55.80
8188;DHT22;4135;49.184;9.722;2022-11-18T16:41:12;17.60;55.80
8188;DHT22;4135;49.184;9.722;2022-11-18T16:44:03;17.60;55.90
8188;DHT22;4135;49.184;9.722;2022-11-18T16:46:35;17.60;55.90
8188;DHT22;4135;49.184;9.722;2022-11-18T16:49:06;17.60;56.00
8188;DHT22;4135;49.184;9.722;2022-11-18T16:51:41;17.60;55.90
8188;DHT22;4135;49.184;9.722;2022-11-18T16:54:21;17.60;55.90
8188;DHT22;4135;49.184;9.722;2022-11-18T16:56:53;17.60;55.90
8188;DHT22;4135;49.184;9.722;2022-11-18T16:59:27;17.60;55.90
8188;DHT22;4135;49.184;9.722;2022-11-18T17:01:58;17.60;55.90
8188;DHT22;4135;49.184;9.722;2022-11-18T17:04:29;17.60;55.80
8188;DHT22;4135;49.184;9.722;2022-11-18T17:06:58;17.60;55.80
8188;DHT22;4135;49.184;9.722;2022-11-18T17:09:28;17.60;55.80
8188;DHT22;4135;49.184;9.722;2022-11-18T17:11:58;17.60;55.80
8188;DHT22;4135;49.184;9.722;2022-11-18T17:14:28;17.60;55.80
8188;DHT22;4135;49.184;9.722;2022-11-18T17:16:58;17.60;55.90
8188;DHT22;4135;49.184;9.722;2022-11-18T17:19:27;17.60;55.90
8188;DHT22;4135;49.184;9.722;2022-11-18T17:21:57;17.60;55.80
8188;DHT22;4135;49.184;9.722;2022-11-18T17:24:26;17.60;55.80
8188;DHT22;4135;49.184;9.722;2022-11-18T17:26:56;17.60;55.80
8188;DHT22;4135;49.184;9.722;2022-11-18T17:29:25;17.60;55.80
8188;DHT22;4135;49.184;9.722;2022-11-18T17:31:55;17.60;55.80
8188;DHT22;4135;49.184;9.722;2022-11-18T17:34:24;17.60;55.70
8188;DHT22;4135;49.184;9.722;2022-11-18T17:36:54;17.60;55.80
8188;DHT22;4135;49.184;9.722;2022-11-18T17:39:23;17.60;55.70
8188;DHT22;4135;49.184;9.722;2022-11-18T17:41:53;17.60;55.70
8188;DHT22;4135;49.184;9.722;2022-11-18T17:44:41;17.60;55.70
8188;DHT22;4135;49.184;9.722;2022-11-18T17:47:11;17.50;55.60
8188;DHT22;4135;49.184;9.722;2022-11-18T17:49:41;17.50;55.60
8188;DHT22;4135;49.184;9.722;2022-11-18T17:52:10;17.50;55.70
8188;DHT22;4135;49.184;9.722;2022-11-18T17:54:40;17.60;55.90
8188;DHT22;4135;49.184;9.722;2022-11-18T17:57:09;17.70;55.70
8188;DHT22;4135;49.184;9.722;2022-11-18T17:59:39;17.70;55.90
